SV2BZQ-2 Thessalonik GR current weather conditions

sailwx.info

Wind from 026

Air temperature 25.6° C
Dewpoint 22.6° C

Last reported at 2015-Aug-03 01:48 UTC.
Time now 2015-Aug-03 02:38 UTC

Location: N 40°41' E 022°51'.
View on Google Maps.

See reports from other nearby stations

  
Tides and Currents Weather Stations Pressure Air Temp Water Temp Dewpoint Dewpoint Depression Visibility Wind Speed Wind Dir Waves Ship Positions
date/time (UTC)wind fromknots sea level pressurealtimeterstation pressurevisibilityair tempwater tempwave heightnotes
2015-Aug-03 01:48 026 25.6
2015-Aug-03 01:32 027 25.6
2015-Aug-03 01:17 287 25.6
2015-Aug-03 01:02 286 25.6
2015-Aug-03 00:47 285 26.1
2015-Aug-03 00:31 284 26.1
2015-Aug-03 00:16 284 26.1
2015-Aug-03 00:01 284 26.7
2015-Aug-02 23:46 284 26.7
2015-Aug-02 23:31 283 26.7
2015-Aug-02 23:16 283 26.7
2015-Aug-02 23:01 283 26.7
2015-Aug-02 22:46 261 26.7
2015-Aug-02 22:31 254 26.7
2015-Aug-02 22:16 253 27.2
2015-Aug-02 21:59 252 26.7
2015-Aug-02 21:44 227 27.2
2015-Aug-02 21:29 164 27.2
2015-Aug-02 21:14 164 27.2
2015-Aug-02 20:59 164 27.2
2015-Aug-02 20:44 164 27.2
2015-Aug-02 20:29 164 27.2
2015-Aug-02 20:14 164 27.2
2015-Aug-02 19:57 161 27.2
2015-Aug-02 19:42 171 27.2
2015-Aug-02 19:27 176 27.2
2015-Aug-02 19:12 187 27.2
2015-Aug-02 18:57 174 27.8
2015-Aug-02 18:41 150 27.8
2015-Aug-02 18:26 167 27.8
2015-Aug-02 18:11 169 1 gusting 10 28.3
2015-Aug-02 17:56 142 28.3
2015-Aug-02 17:41 173 28.3
2015-Aug-02 17:26 167 3 gusting 8 28.9
2015-Aug-02 17:11 175 29.4
2015-Aug-02 16:55 163 2 gusting 6 30.0
2015-Aug-02 16:42 210 1 gusting 7 30.0
2015-Aug-02 16:26 171 1 gusting 9 30.6
2015-Aug-02 16:09 181 30.6
2015-Aug-02 15:54 133 2 gusting 8 30.6
2015-Aug-02 15:39 176 3 gusting 9 31.1
2015-Aug-02 15:24 195 5 gusting 10 31.1
2015-Aug-02 15:09 214 4 gusting 13 31.1
2015-Aug-02 14:54 167 2 gusting 9 31.7
2015-Aug-02 14:39 192 6 gusting 10 31.7
2015-Aug-02 14:24 178 4 gusting 8 31.7
2015-Aug-02 14:09 167 4 gusting 10 32.2
2015-Aug-02 13:54 173 5 gusting 10 32.2
2015-Aug-02 13:37 155 3 gusting 8 32.2
2015-Aug-02 13:22 159 2 gusting 11 32.8
2015-Aug-02 13:07 171 2 gusting 8 32.8
2015-Aug-02 12:52 165 2 gusting 9 32.8
2015-Aug-02 12:37 184 3 gusting 10 33.3
2015-Aug-02 12:21 153 3 gusting 9 33.3
2015-Aug-02 12:06 157 3 gusting 8 33.3
2015-Aug-02 11:51 172 2 gusting 6 32.8
2015-Aug-02 11:36 160 0 gusting 8 32.8
2015-Aug-02 11:21 202 2 gusting 10 32.8
2015-Aug-02 11:06 113 1 gusting 8 32.2
2015-Aug-02 10:51 200 3 gusting 7 32.2
2015-Aug-02 10:36 183 2 gusting 7 32.2
2015-Aug-02 10:19 166 1 gusting 10 31.7
2015-Aug-02 10:04 197 1 gusting 11 31.7
2015-Aug-02 09:49 198 4 gusting 10 31.7
2015-Aug-02 09:34 176 1 gusting 10 31.1
2015-Aug-02 09:19 251 3 gusting 10 31.1
2015-Aug-02 09:04 200 0 gusting 6 30.6
2015-Aug-02 08:49 205 0 gusting 6 30.6
2015-Aug-02 08:34 275 2 gusting 7 30.6
2015-Aug-02 08:19 206 1 gusting 7 30.6
2015-Aug-02 08:04 246 2 gusting 8 30.6
2015-Aug-02 07:47 228 3 gusting 7 30.0
2015-Aug-02 07:32 159 2 gusting 7 29.4
2015-Aug-02 07:17 192 2 gusting 6 29.4
2015-Aug-02 07:02 211 0 gusting 6 29.4
2015-Aug-02 06:46 230 29.4
2015-Aug-02 06:31 238 29.4
2015-Aug-02 06:16 269 1 gusting 5 29.4
2015-Aug-02 06:01 027 28.3
2015-Aug-02 05:46 066 27.8
2015-Aug-02 05:31 071 27.2
2015-Aug-02 05:16 059 27.2
2015-Aug-02 05:01 047 0 gusting 6 27.2
2015-Aug-02 04:44 059 2 gusting 6 26.7
2015-Aug-02 04:31 069 26.7
2015-Aug-02 04:14 069 26.1
2015-Aug-02 03:59 065 26.1
2015-Aug-02 03:44 066 26.1
2015-Aug-02 03:29 066 26.1
2015-Aug-02 03:14 065 26.1
2015-Aug-02 02:59 064 26.1
2015-Aug-02 02:44 065 26.1
2015-Aug-02 02:27 060 0 gusting 5 26.1
2015-Aug-02 02:12 055 0 gusting 4 26.1
2015-Aug-02 01:57 063 2 gusting 7 26.1
2015-Aug-02 01:42 049 0 gusting 4 26.1
2015-Aug-02 01:26 068 0 gusting 4 26.1
2015-Aug-02 01:11 051 0 gusting 6 26.1
2015-Aug-02 00:56 073 26.7
2015-Aug-02 00:41 063 26.7
2015-Aug-02 00:26 076 26.7
2015-Aug-02 00:11 066 26.7
2015-Aug-01 23:56 061 27.2
2015-Aug-01 23:41 061 27.2
2015-Aug-01 23:26 061 27.2
2015-Aug-01 23:11 061 27.2
2015-Aug-01 22:54 061 27.8
2015-Aug-01 22:39 169 27.8
2015-Aug-01 22:24 170 27.8
2015-Aug-01 22:09 171 28.3
2015-Aug-01 21:54 171 28.3
2015-Aug-01 21:39 170 28.3
2015-Aug-01 21:24 171 28.3
2015-Aug-01 21:09 171 28.3
2015-Aug-01 20:54 171 28.3
2015-Aug-01 20:37 169 28.3
2015-Aug-01 20:22 171 28.3
2015-Aug-01 20:07 171 28.3
2015-Aug-01 19:52 171 28.3
2015-Aug-01 19:37 171 28.3
2015-Aug-01 19:21 171 28.3
2015-Aug-01 19:06 175 28.3
2015-Aug-01 18:51 152 28.9
2015-Aug-01 18:36 139 28.9
2015-Aug-01 18:21 142 28.9
2015-Aug-01 18:06 134 28.9
2015-Aug-01 17:51 157 28.9
2015-Aug-01 17:36 175 28.9
2015-Aug-01 17:19 165 29.4
2015-Aug-01 17:04 173 29.4
2015-Aug-01 16:49 165 30.0
2015-Aug-01 16:34 162 2 gusting 7 30.6
2015-Aug-01 16:19 179 2 gusting 6 31.1
2015-Aug-01 16:04 168 2 gusting 8 31.1
2015-Aug-01 15:49 205 3 gusting 7 31.1
2015-Aug-01 15:34 203 4 gusting 11 31.7
2015-Aug-01 15:19 158 2 gusting 9 31.7
2015-Aug-01 15:04 148 3 gusting 14 32.2
2015-Aug-01 14:47 200 5 gusting 12 32.2
2015-Aug-01 14:32 187 4 gusting 11 32.8
2015-Aug-01 14:17 159 5 gusting 12 33.3
2015-Aug-01 14:02 157 4 gusting 9 33.9
2015-Aug-01 13:46 190 2 gusting 9 33.3
2015-Aug-01 13:31 209 2 gusting 8 33.3
2015-Aug-01 13:16 141 1 gusting 8 33.9
2015-Aug-01 13:01 192 3 gusting 9 33.9
2015-Aug-01 12:46 159 1 gusting 9 33.9
2015-Aug-01 12:31 132 1 gusting 8 34.4
2015-Aug-01 12:16 202 4 gusting 10 34.4
2015-Aug-01 12:01 194 4 gusting 9 34.4
2015-Aug-01 11:46 211 3 gusting 9 34.4
2015-Aug-01 11:29 184 3 gusting 9 34.4
2015-Aug-01 11:14 159 4 gusting 8 35.0
2015-Aug-01 10:59 169 0 gusting 10 35.0
2015-Aug-01 10:46 207 2 gusting 6 35.6
2015-Aug-01 10:29 189 2 gusting 6 35.0
2015-Aug-01 10:14 197 2 gusting 6 35.0
2015-Aug-01 09:59 161 3 gusting 7 35.0
2015-Aug-01 09:44 207 1 gusting 6 35.0
2015-Aug-01 09:27 157 0 gusting 5 34.4
2015-Aug-01 09:12 100 32.8
2015-Aug-01 08:57 084 2 gusting 6 32.8
2015-Aug-01 08:42 315 2 gusting 8 32.2
2015-Aug-01 08:27 092 31.7
2015-Aug-01 08:11 052 2 gusting 10 31.7
2015-Aug-01 07:56 019 2 gusting 7 31.1
2015-Aug-01 07:41 061 2 gusting 9 31.1
2015-Aug-01 07:26 067 0 gusting 5 30.6
2015-Aug-01 07:11 020 1 gusting 6 28.9
2015-Aug-01 06:56 296 2 gusting 7 28.3
2015-Aug-01 06:41 306 5 gusting 8 27.8
2015-Aug-01 06:26 294 2 gusting 6 27.2
2015-Aug-01 06:09 282 1 gusting 8 26.1
2015-Aug-01 05:54 306 6 gusting 11 26.1
2015-Aug-01 05:39 319 4 gusting 9 25.6
2015-Aug-01 05:24 331 3 gusting 8 25.0
2015-Aug-01 05:09 314 3 gusting 8 24.4
2015-Aug-01 04:54 319 2 gusting 6 23.9
2015-Aug-01 04:39 307 1 gusting 6 23.9
2015-Aug-01 04:22 329 0 gusting 6 24.4
2015-Aug-01 04:07 333 1 gusting 7 24.4
2015-Aug-01 03:52 324 1 gusting 9 24.4
2015-Aug-01 03:37 338 5 gusting 9 24.4
2015-Aug-01 03:22 285 5 gusting 10 24.4
2015-Aug-01 03:06 320 3 gusting 7 25.0
2015-Aug-01 02:51 309 1 gusting 5 25.0
2015-Aug-01 02:36 296 25.0
2015-Aug-01 02:21 291 25.6
2015-Aug-01 02:06 333 25.6